sensor_id;sensor_type;location;lat;lon;timestamp;P1;durP1;ratioP1;P2;durP2;ratioP2
57832;SDS011;43667;53.036;6.740;2023-06-14T00:00:41;5.82;;;1.63;;
57832;SDS011;43667;53.036;6.740;2023-06-14T00:03:08;6.30;;;1.30;;
57832;SDS011;43667;53.036;6.740;2023-06-14T00:05:35;5.47;;;1.33;;
57832;SDS011;43667;53.036;6.740;2023-06-14T00:08:06;3.75;;;1.77;;
57832;SDS011;43667;53.036;6.740;2023-06-14T00:10:33;4.85;;;1.40;;
57832;SDS011;43667;53.036;6.740;2023-06-14T00:13:03;8.20;;;1.40;;
57832;SDS011;43667;53.036;6.740;2023-06-14T00:15:33;10.10;;;1.48;;
57832;SDS011;43667;53.036;6.740;2023-06-14T00:17:59;5.90;;;1.50;;
57832;SDS011;43667;53.036;6.740;2023-06-14T00:20:29;5.13;;;1.42;;
57832;SDS011;43667;53.036;6.740;2023-06-14T00:22:56;2.53;;;1.08;;
57832;SDS011;43667;53.036;6.740;2023-06-14T00:25:25;9.55;;;1.42;;
57832;SDS011;43667;53.036;6.740;2023-06-14T00:27:51;3.90;;;1.15;;
57832;SDS011;43667;53.036;6.740;2023-06-14T00:30:17;4.57;;;1.40;;
57832;SDS011;43667;53.036;6.740;2023-06-14T00:32:43;6.22;;;1.42;;
57832;SDS011;43667;53.036;6.740;2023-06-14T00:35:12;8.15;;;1.70;;
57832;SDS011;43667;53.036;6.740;2023-06-14T00:40:27;3.50;;;1.30;;
57832;SDS011;43667;53.036;6.740;2023-06-14T00:42:55;8.90;;;1.58;;
57832;SDS011;43667;53.036;6.740;2023-06-14T00:45:24;4.15;;;1.90;;
57832;SDS011;43667;53.036;6.740;2023-06-14T00:48:04;5.45;;;1.48;;
57832;SDS011;43667;53.036;6.740;2023-06-14T00:50:35;2.65;;;1.30;;
57832;SDS011;43667;53.036;6.740;2023-06-14T00:53:01;4.20;;;1.10;;
57832;SDS011;43667;53.036;6.740;2023-06-14T00:55:31;5.35;;;1.60;;
57832;SDS011;43667;53.036;6.740;2023-06-14T00:58:03;3.50;;;1.27;;
57832;SDS011;43667;53.036;6.740;2023-06-14T01:03:25;9.60;;;1.43;;
57832;SDS011;43667;53.036;6.740;2023-06-14T01:05:59;5.00;;;1.38;;
57832;SDS011;43667;53.036;6.740;2023-06-14T01:08:52;3.30;;;1.23;;
57832;SDS011;43667;53.036;6.740;2023-06-14T01:11:31;3.20;;;1.50;;
57832;SDS011;43667;53.036;6.740;2023-06-14T01:14:03;2.08;;;1.30;;
57832;SDS011;43667;53.036;6.740;2023-06-14T01:16:37;5.85;;;1.20;;
57832;SDS011;43667;53.036;6.740;2023-06-14T01:19:07;6.72;;;1.42;;
57832;SDS011;43667;53.036;6.740;2023-06-14T01:21:41;5.63;;;1.50;;
57832;SDS011;43667;53.036;6.740;2023-06-14T01:24:08;3.47;;;1.38;;
57832;SDS011;43667;53.036;6.740;2023-06-14T01:26:39;5.72;;;1.20;;
57832;SDS011;43667;53.036;6.740;2023-06-14T01:29:10;3.95;;;1.13;;
57832;SDS011;43667;53.036;6.740;2023-06-14T01:31:37;3.55;;;1.45;;
57832;SDS011;43667;53.036;6.740;2023-06-14T01:34:09;5.93;;;1.85;;
57832;SDS011;43667;53.036;6.740;2023-06-14T01:36:36;4.03;;;1.15;;
57832;SDS011;43667;53.036;6.740;2023-06-14T01:39:05;6.10;;;1.52;;
57832;SDS011;43667;53.036;6.740;2023-06-14T01:41:32;2.45;;;1.40;;
57832;SDS011;43667;53.036;6.740;2023-06-14T01:44:02;2.65;;;1.48;;
57832;SDS011;43667;53.036;6.740;2023-06-14T01:46:29;4.38;;;1.35;;
57832;SDS011;43667;53.036;6.740;2023-06-14T01:48:55;2.83;;;1.63;;
57832;SDS011;43667;53.036;6.740;2023-06-14T01:51:21;6.40;;;1.73;;
57832;SDS011;43667;53.036;6.740;2023-06-14T01:53:47;4.20;;;1.90;;
57832;SDS011;43667;53.036;6.740;2023-06-14T01:56:13;3.33;;;1.23;;
57832;SDS011;43667;53.036;6.740;2023-06-14T01:58:42;3.20;;;1.38;;
57832;SDS011;43667;53.036;6.740;2023-06-14T02:01:08;3.22;;;1.20;;
57832;SDS011;43667;53.036;6.740;2023-06-14T02:03:34;4.03;;;1.30;;
57832;SDS011;43667;53.036;6.740;2023-06-14T02:06:03;3.75;;;1.50;;
57832;SDS011;43667;53.036;6.740;2023-06-14T02:08:31;5.20;;;1.50;;
57832;SDS011;43667;53.036;6.740;2023-06-14T02:10:57;2.67;;;1.38;;
57832;SDS011;43667;53.036;6.740;2023-06-14T02:13:30;4.07;;;1.98;;
57832;SDS011;43667;53.036;6.740;2023-06-14T02:18:22;4.35;;;1.42;;
57832;SDS011;43667;53.036;6.740;2023-06-14T02:20:48;3.33;;;1.65;;
57832;SDS011;43667;53.036;6.740;2023-06-14T02:23:22;3.13;;;1.70;;
57832;SDS011;43667;53.036;6.740;2023-06-14T02:25:47;3.50;;;1.40;;
57832;SDS011;43667;53.036;6.740;2023-06-14T02:28:19;7.32;;;1.40;;
57832;SDS011;43667;53.036;6.740;2023-06-14T02:30:45;5.80;;;1.40;;
57832;SDS011;43667;53.036;6.740;2023-06-14T02:33:11;3.88;;;2.00;;
57832;SDS011;43667;53.036;6.740;2023-06-14T02:35:38;8.05;;;1.60;;
57832;SDS011;43667;53.036;6.740;2023-06-14T02:38:04;7.32;;;1.80;;
57832;SDS011;43667;53.036;6.740;2023-06-14T02:40:29;3.88;;;1.92;;
57832;SDS011;43667;53.036;6.740;2023-06-14T02:42:58;3.75;;;1.65;;
57832;SDS011;43667;53.036;6.740;2023-06-14T02:45:24;4.90;;;1.80;;
57832;SDS011;43667;53.036;6.740;2023-06-14T02:47:50;6.70;;;1.42;;
57832;SDS011;43667;53.036;6.740;2023-06-14T02:50:16;4.95;;;1.95;;
57832;SDS011;43667;53.036;6.740;2023-06-14T02:52:46;1.75;;;1.60;;
57832;SDS011;43667;53.036;6.740;2023-06-14T02:55:12;4.88;;;1.88;;
57832;SDS011;43667;53.036;6.740;2023-06-14T02:57:41;2.88;;;1.65;;
57832;SDS011;43667;53.036;6.740;2023-06-14T03:00:07;5.00;;;1.85;;
57832;SDS011;43667;53.036;6.740;2023-06-14T03:02:41;4.45;;;1.73;;
57832;SDS011;43667;53.036;6.740;2023-06-14T03:05:08;2.22;;;1.52;;
57832;SDS011;43667;53.036;6.740;2023-06-14T03:07:35;5.72;;;2.15;;
57832;SDS011;43667;53.036;6.740;2023-06-14T03:10:17;4.65;;;1.92;;
57832;SDS011;43667;53.036;6.740;2023-06-14T03:12:48;3.38;;;1.67;;
57832;SDS011;43667;53.036;6.740;2023-06-14T03:15:23;4.38;;;2.53;;
57832;SDS011;43667;53.036;6.740;2023-06-14T03:17:49;4.47;;;1.95;;
57832;SDS011;43667;53.036;6.740;2023-06-14T03:20:18;8.32;;;1.90;;
57832;SDS011;43667;53.036;6.740;2023-06-14T03:22:53;3.28;;;1.85;;
57832;SDS011;43667;53.036;6.740;2023-06-14T03:25:22;4.78;;;2.70;;
57832;SDS011;43667;53.036;6.740;2023-06-14T03:27:48;6.60;;;2.22;;
57832;SDS011;43667;53.036;6.740;2023-06-14T03:30:13;4.03;;;1.98;;
57832;SDS011;43667;53.036;6.740;2023-06-14T03:32:39;10.57;;;2.30;;
57832;SDS011;43667;53.036;6.740;2023-06-14T03:35:28;5.50;;;1.85;;
57832;SDS011;43667;53.036;6.740;2023-06-14T03:37:57;4.88;;;2.00;;
57832;SDS011;43667;53.036;6.740;2023-06-14T03:40:29;5.60;;;2.03;;
57832;SDS011;43667;53.036;6.740;2023-06-14T03:43:02;8.40;;;2.20;;
57832;SDS011;43667;53.036;6.740;2023-06-14T03:45:33;7.18;;;2.08;;
57832;SDS011;43667;53.036;6.740;2023-06-14T03:48:02;8.00;;;2.45;;
57832;SDS011;43667;53.036;6.740;2023-06-14T03:50:28;7.75;;;2.67;;
57832;SDS011;43667;53.036;6.740;2023-06-14T03:52:56;3.22;;;2.03;;
57832;SDS011;43667;53.036;6.740;2023-06-14T03:55:25;3.65;;;2.40;;
57832;SDS011;43667;53.036;6.740;2023-06-14T03:57:52;8.30;;;2.15;;
57832;SDS011;43667;53.036;6.740;2023-06-14T04:00:18;6.30;;;2.50;;
57832;SDS011;43667;53.036;6.740;2023-06-14T04:02:45;3.67;;;2.28;;
57832;SDS011;43667;53.036;6.740;2023-06-14T04:05:10;3.83;;;2.38;;
57832;SDS011;43667;53.036;6.740;2023-06-14T04:07:41;8.93;;;2.75;;
57832;SDS011;43667;53.036;6.740;2023-06-14T04:10:10;3.35;;;1.90;;
57832;SDS011;43667;53.036;6.740;2023-06-14T04:12:45;4.85;;;2.03;;
57832;SDS011;43667;53.036;6.740;2023-06-14T04:15:22;4.93;;;2.53;;
57832;SDS011;43667;53.036;6.740;2023-06-14T04:17:55;11.30;;;3.05;;
57832;SDS011;43667;53.036;6.740;2023-06-14T04:20:26;4.93;;;2.40;;
57832;SDS011;43667;53.036;6.740;2023-06-14T04:22:52;4.28;;;2.25;;
57832;SDS011;43667;53.036;6.740;2023-06-14T04:25:18;5.68;;;2.40;;
57832;SDS011;43667;53.036;6.740;2023-06-14T04:27:48;4.18;;;2.38;;
57832;SDS011;43667;53.036;6.740;2023-06-14T04:30:15;4.03;;;2.35;;
57832;SDS011;43667;53.036;6.740;2023-06-14T04:32:41;4.75;;;2.38;;
57832;SDS011;43667;53.036;6.740;2023-06-14T04:35:09;5.45;;;2.10;;
57832;SDS011;43667;53.036;6.740;2023-06-14T04:37:43;5.63;;;2.55;;
57832;SDS011;43667;53.036;6.740;2023-06-14T04:40:10;10.27;;;3.40;;
57832;SDS011;43667;53.036;6.740;2023-06-14T04:42:36;5.78;;;2.90;;
57832;SDS011;43667;53.036;6.740;2023-06-14T04:45:02;7.50;;;2.70;;
57832;SDS011;43667;53.036;6.740;2023-06-14T04:47:38;5.07;;;2.60;;
57832;SDS011;43667;53.036;6.740;2023-06-14T04:50:06;6.95;;;2.97;;
57832;SDS011;43667;53.036;6.740;2023-06-14T04:52:41;9.40;;;2.63;;
57832;SDS011;43667;53.036;6.740;2023-06-14T04:55:08;6.88;;;2.70;;
57832;SDS011;43667;53.036;6.740;2023-06-14T04:57:38;7.57;;;2.60;;
57832;SDS011;43667;53.036;6.740;2023-06-14T05:00:06;5.63;;;2.40;;
57832;SDS011;43667;53.036;6.740;2023-06-14T05:02:38;6.40;;;2.63;;
57832;SDS011;43667;53.036;6.740;2023-06-14T05:05:08;10.93;;;3.35;;
57832;SDS011;43667;53.036;6.740;2023-06-14T05:07:37;4.93;;;2.85;;
57832;SDS011;43667;53.036;6.740;2023-06-14T05:10:02;5.15;;;2.70;;
57832;SDS011;43667;53.036;6.740;2023-06-14T05:12:28;5.90;;;2.15;;
57832;SDS011;43667;53.036;6.740;2023-06-14T05:14:54;4.40;;;2.80;;
57832;SDS011;43667;53.036;6.740;2023-06-14T05:17:20;6.97;;;3.15;;
57832;SDS011;43667;53.036;6.740;2023-06-14T05:19:48;5.07;;;3.08;;
57832;SDS011;43667;53.036;6.740;2023-06-14T05:22:14;6.32;;;2.97;;
57832;SDS011;43667;53.036;6.740;2023-06-14T05:24:40;5.18;;;3.00;;
57832;SDS011;43667;53.036;6.740;2023-06-14T05:27:08;5.25;;;2.42;;
57832;SDS011;43667;53.036;6.740;2023-06-14T05:29:37;7.25;;;2.60;;
57832;SDS011;43667;53.036;6.740;2023-06-14T05:32:08;5.57;;;3.03;;
57832;SDS011;43667;53.036;6.740;2023-06-14T05:34:42;7.93;;;2.90;;
57832;SDS011;43667;53.036;6.740;2023-06-14T05:37:23;4.03;;;2.30;;
57832;SDS011;43667;53.036;6.740;2023-06-14T05:39:48;5.30;;;2.72;;
57832;SDS011;43667;53.036;6.740;2023-06-14T05:42:35;7.07;;;2.78;;
57832;SDS011;43667;53.036;6.740;2023-06-14T05:45:03;4.55;;;2.35;;
57832;SDS011;43667;53.036;6.740;2023-06-14T05:47:35;8.95;;;2.90;;
57832;SDS011;43667;53.036;6.740;2023-06-14T05:50:01;5.93;;;2.58;;
57832;SDS011;43667;53.036;6.740;2023-06-14T05:52:30;5.20;;;3.13;;
57832;SDS011;43667;53.036;6.740;2023-06-14T05:54:56;5.78;;;2.70;;
57832;SDS011;43667;53.036;6.740;2023-06-14T05:57:25;9.43;;;2.60;;
57832;SDS011;43667;53.036;6.740;2023-06-14T05:59:51;5.43;;;2.55;;
57832;SDS011;43667;53.036;6.740;2023-06-14T06:02:17;4.45;;;2.45;;
57832;SDS011;43667;53.036;6.740;2023-06-14T06:04:43;6.60;;;2.13;;
57832;SDS011;43667;53.036;6.740;2023-06-14T06:07:08;8.32;;;2.28;;
57832;SDS011;43667;53.036;6.740;2023-06-14T06:09:34;5.32;;;2.65;;
57832;SDS011;43667;53.036;6.740;2023-06-14T06:12:00;5.43;;;2.28;;
57832;SDS011;43667;53.036;6.740;2023-06-14T06:14:28;6.65;;;2.40;;
57832;SDS011;43667;53.036;6.740;2023-06-14T06:17:06;5.93;;;2.22;;
57832;SDS011;43667;53.036;6.740;2023-06-14T06:19:35;5.70;;;2.17;;
57832;SDS011;43667;53.036;6.740;2023-06-14T06:22:04;12.25;;;2.60;;
57832;SDS011;43667;53.036;6.740;2023-06-14T06:24:31;7.07;;;2.60;;
57832;SDS011;43667;53.036;6.740;2023-06-14T06:26:57;7.07;;;1.83;;
57832;SDS011;43667;53.036;6.740;2023-06-14T06:29:23;9.43;;;2.80;;
57832;SDS011;43667;53.036;6.740;2023-06-14T06:31:48;8.60;;;2.00;;
57832;SDS011;43667;53.036;6.740;2023-06-14T06:34:14;4.72;;;2.05;;
57832;SDS011;43667;53.036;6.740;2023-06-14T06:36:40;6.15;;;2.28;;
57832;SDS011;43667;53.036;6.740;2023-06-14T06:39:05;2.63;;;1.85;;
57832;SDS011;43667;53.036;6.740;2023-06-14T06:41:35;5.18;;;2.08;;
57832;SDS011;43667;53.036;6.740;2023-06-14T06:44:02;7.20;;;2.17;;
57832;SDS011;43667;53.036;6.740;2023-06-14T06:46:28;5.43;;;2.40;;
57832;SDS011;43667;53.036;6.740;2023-06-14T06:48:53;2.70;;;1.88;;
57832;SDS011;43667;53.036;6.740;2023-06-14T06:51:19;7.32;;;1.70;;
57832;SDS011;43667;53.036;6.740;2023-06-14T06:53:51;4.70;;;1.60;;
57832;SDS011;43667;53.036;6.740;2023-06-14T06:56:18;6.03;;;1.95;;
57832;SDS011;43667;53.036;6.740;2023-06-14T06:58:44;9.52;;;1.77;;
57832;SDS011;43667;53.036;6.740;2023-06-14T07:01:10;5.47;;;1.77;;
57832;SDS011;43667;53.036;6.740;2023-06-14T07:03:36;6.60;;;1.73;;
57832;SDS011;43667;53.036;6.740;2023-06-14T07:06:02;9.18;;;1.75;;
57832;SDS011;43667;53.036;6.740;2023-06-14T07:08:28;6.93;;;1.80;;
57832;SDS011;43667;53.036;6.740;2023-06-14T07:10:53;3.97;;;1.63;;
57832;SDS011;43667;53.036;6.740;2023-06-14T07:13:19;5.05;;;1.92;;
57832;SDS011;43667;53.036;6.740;2023-06-14T07:15:45;4.97;;;1.58;;
57832;SDS011;43667;53.036;6.740;2023-06-14T07:18:11;4.97;;;1.65;;
57832;SDS011;43667;53.036;6.740;2023-06-14T07:20:36;5.18;;;1.75;;
57832;SDS011;43667;53.036;6.740;2023-06-14T07:23:05;2.90;;;1.60;;
57832;SDS011;43667;53.036;6.740;2023-06-14T07:25:31;7.65;;;2.60;;
57832;SDS011;43667;53.036;6.740;2023-06-14T07:27:56;2.83;;;1.38;;
57832;SDS011;43667;53.036;6.740;2023-06-14T07:30:22;3.70;;;1.42;;
57832;SDS011;43667;53.036;6.740;2023-06-14T07:32:51;4.00;;;1.48;;
57832;SDS011;43667;53.036;6.740;2023-06-14T07:35:17;3.83;;;1.60;;
57832;SDS011;43667;53.036;6.740;2023-06-14T07:37:43;5.10;;;1.60;;
57832;SDS011;43667;53.036;6.740;2023-06-14T07:40:10;4.35;;;1.52;;
57832;SDS011;43667;53.036;6.740;2023-06-14T07:42:36;3.58;;;1.40;;
57832;SDS011;43667;53.036;6.740;2023-06-14T07:45:02;5.88;;;1.52;;
57832;SDS011;43667;53.036;6.740;2023-06-14T07:47:28;7.07;;;1.98;;
57832;SDS011;43667;53.036;6.740;2023-06-14T07:49:54;3.58;;;1.55;;
57832;SDS011;43667;53.036;6.740;2023-06-14T07:52:20;4.90;;;1.48;;
57832;SDS011;43667;53.036;6.740;2023-06-14T07:54:45;3.78;;;1.50;;
57832;SDS011;43667;53.036;6.740;2023-06-14T07:57:14;5.63;;;1.48;;
57832;SDS011;43667;53.036;6.740;2023-06-14T07:59:40;5.30;;;1.70;;
57832;SDS011;43667;53.036;6.740;2023-06-14T08:02:06;6.15;;;1.85;;
57832;SDS011;43667;53.036;6.740;2023-06-14T08:04:31;5.25;;;1.40;;
57832;SDS011;43667;53.036;6.740;2023-06-14T08:06:58;5.72;;;1.77;;
57832;SDS011;43667;53.036;6.740;2023-06-14T08:09:24;4.47;;;2.08;;
57832;SDS011;43667;53.036;6.740;2023-06-14T08:11:50;8.32;;;1.92;;
57832;SDS011;43667;53.036;6.740;2023-06-14T08:14:16;5.65;;;1.52;;
57832;SDS011;43667;53.036;6.740;2023-06-14T08:16:41;6.50;;;1.38;;
57832;SDS011;43667;53.036;6.740;2023-06-14T08:19:07;7.47;;;1.48;;
57832;SDS011;43667;53.036;6.740;2023-06-14T08:21:33;6.18;;;1.60;;
57832;SDS011;43667;53.036;6.740;2023-06-14T08:24:01;6.45;;;1.45;;
57832;SDS011;43667;53.036;6.740;2023-06-14T08:26:27;4.95;;;1.42;;
57832;SDS011;43667;53.036;6.740;2023-06-14T08:28:57;4.03;;;1.50;;
57832;SDS011;43667;53.036;6.740;2023-06-14T08:31:22;7.53;;;1.65;;
57832;SDS011;43667;53.036;6.740;2023-06-14T08:33:49;8.23;;;1.40;;
57832;SDS011;43667;53.036;6.740;2023-06-14T08:36:15;4.38;;;1.40;;
57832;SDS011;43667;53.036;6.740;2023-06-14T08:38:41;6.78;;;1.60;;
57832;SDS011;43667;53.036;6.740;2023-06-14T08:41:06;5.53;;;2.03;;
57832;SDS011;43667;53.036;6.740;2023-06-14T08:43:35;9.10;;;1.70;;
57832;SDS011;43667;53.036;6.740;2023-06-14T08:46:02;6.32;;;1.52;;
57832;SDS011;43667;53.036;6.740;2023-06-14T08:48:29;5.88;;;1.67;;
57832;SDS011;43667;53.036;6.740;2023-06-14T08:50:57;5.18;;;1.40;;
57832;SDS011;43667;53.036;6.740;2023-06-14T08:53:32;6.05;;;1.58;;
57832;SDS011;43667;53.036;6.740;2023-06-14T08:56:01;2.63;;;1.50;;
57832;SDS011;43667;53.036;6.740;2023-06-14T08:58:29;4.22;;;1.70;;
57832;SDS011;43667;53.036;6.740;2023-06-14T09:01:02;5.22;;;1.50;;
57832;SDS011;43667;53.036;6.740;2023-06-14T09:03:30;3.90;;;1.42;;
57832;SDS011;43667;53.036;6.740;2023-06-14T09:05:58;8.68;;;1.63;;
57832;SDS011;43667;53.036;6.740;2023-06-14T09:08:24;14.18;;;1.80;;
57832;SDS011;43667;53.036;6.740;2023-06-14T09:10:50;7.20;;;1.30;;
57832;SDS011;43667;53.036;6.740;2023-06-14T09:13:16;5.05;;;1.10;;
57832;SDS011;43667;53.036;6.740;2023-06-14T09:15:42;4.20;;;1.60;;
57832;SDS011;43667;53.036;6.740;2023-06-14T09:18:08;3.13;;;1.13;;
57832;SDS011;43667;53.036;6.740;2023-06-14T09:20:34;5.28;;;1.48;;
57832;SDS011;43667;53.036;6.740;2023-06-14T09:23:00;4.07;;;1.30;;
57832;SDS011;43667;53.036;6.740;2023-06-14T09:25:26;4.03;;;1.23;;
57832;SDS011;43667;53.036;6.740;2023-06-14T09:27:52;10.75;;;1.35;;
57832;SDS011;43667;53.036;6.740;2023-06-14T09:30:19;5.88;;;1.20;;
57832;SDS011;43667;53.036;6.740;2023-06-14T09:32:45;4.43;;;1.30;;
57832;SDS011;43667;53.036;6.740;2023-06-14T09:35:11;5.68;;;1.13;;
57832;SDS011;43667;53.036;6.740;2023-06-14T09:37:37;3.78;;;1.30;;
57832;SDS011;43667;53.036;6.740;2023-06-14T09:40:04;8.32;;;1.65;;
57832;SDS011;43667;53.036;6.740;2023-06-14T09:42:30;5.18;;;1.10;;
57832;SDS011;43667;53.036;6.740;2023-06-14T09:44:56;4.70;;;1.27;;
57832;SDS011;43667;53.036;6.740;2023-06-14T09:47:22;4.47;;;1.27;;
57832;SDS011;43667;53.036;6.740;2023-06-14T09:49:50;2.95;;;1.40;;
57832;SDS011;43667;53.036;6.740;2023-06-14T09:52:16;1.92;;;1.33;;
57832;SDS011;43667;53.036;6.740;2023-06-14T09:54:43;5.85;;;1.35;;
57832;SDS011;43667;53.036;6.740;2023-06-14T09:57:21;4.40;;;1.30;;
57832;SDS011;43667;53.036;6.740;2023-06-14T09:59:48;2.88;;;1.02;;
57832;SDS011;43667;53.036;6.740;2023-06-14T10:02:21;3.28;;;1.40;;
57832;SDS011;43667;53.036;6.740;2023-06-14T10:04:58;3.13;;;1.38;;
57832;SDS011;43667;53.036;6.740;2023-06-14T10:07:32;6.55;;;1.60;;
57832;SDS011;43667;53.036;6.740;2023-06-14T10:10:20;4.35;;;1.05;;
57832;SDS011;43667;53.036;6.740;2023-06-14T10:12:46;8.25;;;1.25;;
57832;SDS011;43667;53.036;6.740;2023-06-14T10:15:18;4.35;;;1.20;;
57832;SDS011;43667;53.036;6.740;2023-06-14T10:17:59;2.88;;;1.20;;
57832;SDS011;43667;53.036;6.740;2023-06-14T10:20:33;5.47;;;1.15;;
57832;SDS011;43667;53.036;6.740;2023-06-14T10:23:22;6.75;;;0.95;;
57832;SDS011;43667;53.036;6.740;2023-06-14T10:25:58;3.47;;;0.90;;
57832;SDS011;43667;53.036;6.740;2023-06-14T10:28:25;5.53;;;1.10;;
57832;SDS011;43667;53.036;6.740;2023-06-14T10:31:04;6.10;;;1.20;;
57832;SDS011;43667;53.036;6.740;2023-06-14T10:34:20;6.80;;;1.10;;
57832;SDS011;43667;53.036;6.740;2023-06-14T10:36:30;4.33;;;0.97;;
57832;SDS011;43667;53.036;6.740;2023-06-14T10:41:40;8.88;;;1.25;;
57832;SDS011;43667;53.036;6.740;2023-06-14T10:46:38;5.07;;;0.90;;
57832;SDS011;43667;53.036;6.740;2023-06-14T10:49:05;5.22;;;1.20;;
57832;SDS011;43667;53.036;6.740;2023-06-14T10:51:38;2.88;;;0.85;;
57832;SDS011;43667;53.036;6.740;2023-06-14T10:54:18;6.93;;;0.98;;
57832;SDS011;43667;53.036;6.740;2023-06-14T10:56:49;5.50;;;1.38;;
57832;SDS011;43667;53.036;6.740;2023-06-14T10:59:20;4.88;;;0.90;;
57832;SDS011;43667;53.036;6.740;2023-06-14T11:04:49;8.48;;;1.10;;
57832;SDS011;43667;53.036;6.740;2023-06-14T11:10:37;1.73;;;0.85;;
57832;SDS011;43667;53.036;6.740;2023-06-14T11:13:06;1.42;;;0.70;;
57832;SDS011;43667;53.036;6.740;2023-06-14T11:15:34;7.32;;;1.00;;
57832;SDS011;43667;53.036;6.740;2023-06-14T11:18:04;5.72;;;1.00;;
57832;SDS011;43667;53.036;6.740;2023-06-14T11:20:32;6.20;;;0.90;;
57832;SDS011;43667;53.036;6.740;2023-06-14T11:22:59;3.13;;;0.95;;
57832;SDS011;43667;53.036;6.740;2023-06-14T11:25:26;6.20;;;1.10;;
57832;SDS011;43667;53.036;6.740;2023-06-14T11:27:55;6.78;;;1.23;;
57832;SDS011;43667;53.036;6.740;2023-06-14T11:30:21;1.55;;;0.80;;
57832;SDS011;43667;53.036;6.740;2023-06-14T11:32:47;4.55;;;0.98;;
57832;SDS011;43667;53.036;6.740;2023-06-14T11:35:17;1.70;;;0.75;;
57832;SDS011;43667;53.036;6.740;2023-06-14T11:37:44;5.07;;;1.15;;
57832;SDS011;43667;53.036;6.740;2023-06-14T11:40:10;7.80;;;1.23;;
57832;SDS011;43667;53.036;6.740;2023-06-14T11:42:38;6.55;;;1.30;;
57832;SDS011;43667;53.036;6.740;2023-06-14T11:45:08;11.40;;;1.13;;
57832;SDS011;43667;53.036;6.740;2023-06-14T11:47:35;4.07;;;0.77;;
57832;SDS011;43667;53.036;6.740;2023-06-14T11:50:05;3.70;;;1.00;;
57832;SDS011;43667;53.036;6.740;2023-06-14T11:52:33;5.57;;;1.00;;
57832;SDS011;43667;53.036;6.740;2023-06-14T11:54:59;7.57;;;0.98;;
57832;SDS011;43667;53.036;6.740;2023-06-14T11:57:26;7.53;;;0.95;;
57832;SDS011;43667;53.036;6.740;2023-06-14T11:59:51;7.70;;;1.00;;
57832;SDS011;43667;53.036;6.740;2023-06-14T12:02:19;7.30;;;1.08;;
57832;SDS011;43667;53.036;6.740;2023-06-14T12:04:47;8.00;;;1.00;;
57832;SDS011;43667;53.036;6.740;2023-06-14T12:07:16;1.98;;;0.73;;
57832;SDS011;43667;53.036;6.740;2023-06-14T12:12:22;8.38;;;1.10;;
57832;SDS011;43667;53.036;6.740;2023-06-14T12:14:50;2.38;;;1.00;;
57832;SDS011;43667;53.036;6.740;2023-06-14T12:17:16;5.57;;;1.00;;
57832;SDS011;43667;53.036;6.740;2023-06-14T12:19:43;2.28;;;0.73;;
57832;SDS011;43667;53.036;6.740;2023-06-14T12:22:10;5.68;;;0.88;;
57832;SDS011;43667;53.036;6.740;2023-06-14T12:24:36;3.92;;;0.93;;
57832;SDS011;43667;53.036;6.740;2023-06-14T12:27:03;4.15;;;1.05;;
57832;SDS011;43667;53.036;6.740;2023-06-14T12:29:29;2.42;;;0.80;;
57832;SDS011;43667;53.036;6.740;2023-06-14T12:31:58;4.72;;;0.77;;
57832;SDS011;43667;53.036;6.740;2023-06-14T12:34:24;6.47;;;1.27;;
57832;SDS011;43667;53.036;6.740;2023-06-14T12:36:51;3.03;;;1.00;;
57832;SDS011;43667;53.036;6.740;2023-06-14T12:39:18;3.33;;;0.90;;
57832;SDS011;43667;53.036;6.740;2023-06-14T12:41:44;2.70;;;0.80;;
57832;SDS011;43667;53.036;6.740;2023-06-14T12:44:10;2.78;;;0.93;;
57832;SDS011;43667;53.036;6.740;2023-06-14T12:46:36;4.70;;;0.68;;
57832;SDS011;43667;53.036;6.740;2023-06-14T12:49:04;1.95;;;1.23;;
57832;SDS011;43667;53.036;6.740;2023-06-14T12:51:30;4.10;;;0.60;;
57832;SDS011;43667;53.036;6.740;2023-06-14T12:53:56;3.58;;;1.00;;
57832;SDS011;43667;53.036;6.740;2023-06-14T12:56:21;5.10;;;0.85;;
57832;SDS011;43667;53.036;6.740;2023-06-14T12:58:47;4.95;;;1.02;;
57832;SDS011;43667;53.036;6.740;2023-06-14T13:01:12;4.18;;;0.95;;
57832;SDS011;43667;53.036;6.740;2023-06-14T13:03:38;1.10;;;0.80;;
57832;SDS011;43667;53.036;6.740;2023-06-14T13:06:04;4.60;;;1.20;;
57832;SDS011;43667;53.036;6.740;2023-06-14T13:08:30;1.83;;;0.73;;
57832;SDS011;43667;53.036;6.740;2023-06-14T13:10:56;2.47;;;0.70;;
57832;SDS011;43667;53.036;6.740;2023-06-14T13:13:21;4.47;;;1.00;;
57832;SDS011;43667;53.036;6.740;2023-06-14T13:15:47;3.15;;;0.90;;
57832;SDS011;43667;53.036;6.740;2023-06-14T13:18:14;4.00;;;1.27;;
57832;SDS011;43667;53.036;6.740;2023-06-14T13:20:40;6.50;;;1.05;;
57832;SDS011;43667;53.036;6.740;2023-06-14T13:23:06;4.35;;;1.15;;
57832;SDS011;43667;53.036;6.740;2023-06-14T13:25:35;1.98;;;0.70;;
57832;SDS011;43667;53.036;6.740;2023-06-14T13:28:03;5.97;;;0.85;;
57832;SDS011;43667;53.036;6.740;2023-06-14T13:30:29;1.15;;;0.85;;
57832;SDS011;43667;53.036;6.740;2023-06-14T13:32:55;1.67;;;0.75;;
57832;SDS011;43667;53.036;6.740;2023-06-14T13:35:22;4.05;;;0.90;;
57832;SDS011;43667;53.036;6.740;2023-06-14T13:37:48;2.80;;;0.95;;
57832;SDS011;43667;53.036;6.740;2023-06-14T13:40:14;5.88;;;1.00;;
57832;SDS011;43667;53.036;6.740;2023-06-14T13:42:39;8.57;;;0.98;;
57832;SDS011;43667;53.036;6.740;2023-06-14T13:45:05;3.65;;;1.10;;
57832;SDS011;43667;53.036;6.740;2023-06-14T13:47:32;5.68;;;1.27;;
57832;SDS011;43667;53.036;6.740;2023-06-14T13:49:57;7.63;;;1.05;;
57832;SDS011;43667;53.036;6.740;2023-06-14T13:52:23;4.30;;;1.00;;
57832;SDS011;43667;53.036;6.740;2023-06-14T13:54:49;6.10;;;1.00;;
57832;SDS011;43667;53.036;6.740;2023-06-14T13:57:16;4.72;;;1.10;;
57832;SDS011;43667;53.036;6.740;2023-06-14T13:59:42;4.07;;;0.88;;
57832;SDS011;43667;53.036;6.740;2023-06-14T14:02:09;3.13;;;0.82;;
57832;SDS011;43667;53.036;6.740;2023-06-14T14:04:36;3.08;;;0.95;;
57832;SDS011;43667;53.036;6.740;2023-06-14T14:07:03;8.20;;;1.05;;
57832;SDS011;43667;53.036;6.740;2023-06-14T14:09:30;7.95;;;1.50;;
57832;SDS011;43667;53.036;6.740;2023-06-14T14:12:00;3.17;;;0.90;;
57832;SDS011;43667;53.036;6.740;2023-06-14T14:14:27;3.50;;;0.75;;
57832;SDS011;43667;53.036;6.740;2023-06-14T14:16:53;2.05;;;0.70;;
57832;SDS011;43667;53.036;6.740;2023-06-14T14:19:23;1.40;;;0.70;;
57832;SDS011;43667;53.036;6.740;2023-06-14T14:21:50;7.70;;;0.93;;
57832;SDS011;43667;53.036;6.740;2023-06-14T14:24:15;2.78;;;1.00;;
57832;SDS011;43667;53.036;6.740;2023-06-14T14:26:41;3.10;;;0.90;;
57832;SDS011;43667;53.036;6.740;2023-06-14T14:29:07;2.08;;;1.00;;
57832;SDS011;43667;53.036;6.740;2023-06-14T14:31:36;4.85;;;1.13;;
57832;SDS011;43667;53.036;6.740;2023-06-14T14:34:02;2.00;;;0.90;;
57832;SDS011;43667;53.036;6.740;2023-06-14T14:36:27;3.67;;;1.23;;
57832;SDS011;43667;53.036;6.740;2023-06-14T14:38:53;2.65;;;0.85;;
57832;SDS011;43667;53.036;6.740;2023-06-14T14:41:18;2.95;;;0.85;;
57832;SDS011;43667;53.036;6.740;2023-06-14T14:43:44;3.15;;;0.88;;
57832;SDS011;43667;53.036;6.740;2023-06-14T14:46:10;4.07;;;0.95;;
57832;SDS011;43667;53.036;6.740;2023-06-14T14:48:38;2.95;;;1.00;;
57832;SDS011;43667;53.036;6.740;2023-06-14T14:51:04;1.90;;;0.93;;
57832;SDS011;43667;53.036;6.740;2023-06-14T14:53:30;1.92;;;0.90;;
57832;SDS011;43667;53.036;6.740;2023-06-14T14:55:55;1.55;;;0.93;;
57832;SDS011;43667;53.036;6.740;2023-06-14T14:58:21;4.78;;;0.82;;
57832;SDS011;43667;53.036;6.740;2023-06-14T15:00:47;3.92;;;0.90;;
57832;SDS011;43667;53.036;6.740;2023-06-14T15:03:13;7.32;;;1.10;;
57832;SDS011;43667;53.036;6.740;2023-06-14T15:05:42;2.75;;;0.95;;
57832;SDS011;43667;53.036;6.740;2023-06-14T15:08:07;3.85;;;0.88;;
57832;SDS011;43667;53.036;6.740;2023-06-14T15:10:37;4.88;;;0.85;;
57832;SDS011;43667;53.036;6.740;2023-06-14T15:13:05;4.03;;;1.20;;
57832;SDS011;43667;53.036;6.740;2023-06-14T15:15:31;2.85;;;1.10;;